Levis, Canada
Current Conditions -  °F | °C
As of 11:29 AM on Saturday 25 Oct 2014 (Local Time) from CYQB Reporting Station
Broken Clouds Broken Clouds  
Wind Chill: 35°   Ceiling: 24000
Heat Index: 43°   Visibility: 10mi
Dew Point: 39°   Wind: 16mph
Humidity: 87%   Direction: 220°SW
Pressure: 29.65"   Gusts: NA
Location:  46.8°N, 71.18°W
Report Text: CYQB 251529Z 22014KT 10SM SCT007 BKN240 06/04 A2965 RMK SF4CI2 VIS S 4 LWR CIG S SLP043
Loading
Personal Weather Stations






























Interactive Weather Map
Tropical Storm Tracking
New forecast layout! Learn more

10-Day Weather Forecast

Advertisements
Track Severe Weather on mobile